Time;durP1;ratioP1;P1;durP2;ratioP2;P2;SDS_P1;SDS_P2;PMS_P1;PMS_P2;Temp;Humidity;BMP_temperature;BMP_pressure;BME280_temperature;BME280_humidity;BME280_pressure;Samples;Min_cycle;Max_cycle;Signal;HPM_P1;HPM_P2
2021/09/25 00:00:29;;;;;;;19.27;3.55;;;;;;;16.27;82.42;101660.13;5093799;28;20070;-74
2021/09/25 00:02:57;;;;;;;17.20;3.40;;;;;;;16.27;82.71;101664.66;5093771;28;20043;-75
2021/09/25 00:05:25;;;;;;;13.68;3.80;;;;;;;16.25;83.10;101656.75;5093627;28;20055;-76
2021/09/25 00:07:50;;;;;;;14.48;3.40;;;;;;;16.25;83.11;101655.91;5093593;28;20020;-74
2021/09/25 00:10:16;;;;;;;16.88;3.47;;;;;;;16.28;83.25;101669.03;5093457;28;20428;-74
2021/09/25 00:12:41;;;;;;;14.57;3.65;;;;;;;16.31;83.17;101652.59;5092344;28;20461;-74
2021/09/25 00:15:07;;;;;;;18.55;3.60;;;;;;;16.30;83.45;101658.97;5093515;28;20456;-74
2021/09/25 00:17:33;;;;;;;17.92;3.90;;;;;;;16.29;83.35;101651.94;5092545;28;20032;-74
2021/09/25 00:19:58;;;;;;;17.95;3.50;;;;;;;16.28;83.73;101653.75;5093357;28;20392;-74
2021/09/25 00:22:24;;;;;;;15.57;3.28;;;;;;;16.30;83.46;101658.97;5093290;28;20035;-74
2021/09/25 00:24:49;;;;;;;17.42;3.58;;;;;;;16.29;83.67;101654.63;5092610;28;20384;-75
2021/09/25 00:27:14;;;;;;;18.00;3.83;;;;;;;16.32;83.50;101651.63;5075230;28;20549;-75
2021/09/25 00:29:40;;;;;;;19.95;3.53;;;;;;;16.35;84.00;101648.63;5092247;28;20060;-75
2021/09/25 00:32:06;;;;;;;15.52;3.67;;;;;;;16.32;83.92;101649.75;5093396;28;20032;-74
2021/09/25 00:34:31;;;;;;;16.65;3.33;;;;;;;16.28;84.53;101653.75;5092566;28;20494;-74
2021/09/25 00:36:56;;;;;;;19.10;3.97;;;;;;;16.26;84.73;101653.06;5093194;28;20040;-74
2021/09/25 00:39:22;;;;;;;15.77;3.42;;;;;;;16.28;84.69;101652.91;5092969;28;20472;-74
2021/09/25 00:41:47;;;;;;;20.25;3.50;;;;;;;16.28;84.90;101660.97;5092585;28;20616;-74
2021/09/25 00:44:13;;;;;;;16.00;3.58;;;;;;;16.26;84.86;101652.22;5093115;28;20060;-74
2021/09/25 00:46:38;;;;;;;18.00;3.75;;;;;;;16.24;85.17;101651.53;5092337;28;20028;-74
2021/09/25 00:49:03;;;;;;;13.07;3.35;;;;;;;16.22;85.53;101649.00;5092690;28;20110;-74
2021/09/25 00:51:29;;;;;;;19.85;3.72;;;;;;;16.21;85.84;101655.38;5092286;28;20028;-75
2021/09/25 00:53:54;;;;;;;20.65;3.60;;;;;;;16.27;85.14;101657.47;5092913;28;20038;-74
2021/09/25 00:56:22;;;;;;;14.73;3.38;;;;;;;16.28;85.16;101653.75;5092493;28;20119;-73
2021/09/25 00:58:47;;;;;;;15.02;3.60;;;;;;;16.27;85.41;101657.47;5092140;28;20036;-74
2021/09/25 01:01:12;;;;;;;16.08;3.30;;;;;;;16.23;85.55;101661.44;5092601;28;20407;-74
2021/09/25 01:03:38;;;;;;;17.00;3.92;;;;;;;16.20;85.21;101654.53;5092072;28;20028;-74
2021/09/25 01:06:03;;;;;;;11.70;3.33;;;;;;;16.18;85.18;101656.56;5092742;28;20551;-73
2021/09/25 01:08:29;;;;;;;26.17;4.28;;;;;;;16.14;85.42;101659.72;5092664;28;20024;-74
2021/09/25 01:10:55;;;;;;;17.85;3.53;;;;;;;16.13;84.79;101661.53;5091549;28;20040;-74
2021/09/25 01:13:22;;;;;;;11.43;3.50;;;;;;;16.12;84.59;101659.88;5092530;28;20453;-73
2021/09/25 01:15:48;;;;;;;16.27;4.03;;;;;;;16.09;84.44;101657.47;5091885;28;20447;-74
2021/09/25 01:18:15;;;;;;;17.80;3.90;;;;;;;16.06;84.24;101655.09;5092840;28;20460;-73
2021/09/25 01:20:41;;;;;;;13.00;3.90;;;;;;;16.03;84.86;101655.41;5091994;28;20031;-74
2021/09/25 01:23:07;;;;;;;14.27;4.43;;;;;;;15.97;84.47;101656.88;5092584;28;20039;-73
2021/09/25 01:25:33;;;;;;;12.70;3.85;;;;;;;15.96;84.55;101663.25;5092243;28;20471;-73
2021/09/25 01:28:00;;;;;;;11.65;3.97;;;;;;;15.92;84.64;101659.19;5094486;28;20451;-74
2021/09/25 01:30:27;;;;;;;13.43;4.00;;;;;;;15.88;84.43;101652.41;5096618;28;20039;-74
2021/09/25 01:32:53;;;;;;;15.60;4.53;;;;;;;15.86;84.50;101659.78;5095657;28;20032;-74
2021/09/25 01:35:22;;;;;;;18.10;4.57;;;;;;;15.82;84.47;101658.41;5096311;28;20032;-73
2021/09/25 01:37:50;;;;;;;14.82;4.75;;;;;;;15.78;84.27;101657.88;5095948;28;20024;-74
2021/09/25 01:40:16;;;;;;;16.10;4.30;;;;;;;15.76;84.24;101649.09;5096261;28;20036;-74
2021/09/25 01:42:43;;;;;;;15.73;5.35;;;;;;;15.74;84.23;101656.47;5096166;28;20036;-74
2021/09/25 01:45:09;;;;;;;12.15;4.60;;;;;;;15.72;84.40;101658.47;5096624;28;20553;-74
2021/09/25 01:47:35;;;;;;;13.10;4.70;;;;;;;15.69;84.44;101659.59;5096124;28;20388;-75
2021/09/25 01:50:04;;;;;;;13.88;4.70;;;;;;;15.68;84.67;101657.09;5095703;28;20036;-74
2021/09/25 01:52:30;;;;;;;15.80;5.45;;;;;;;15.66;84.91;101649.19;5096218;28;20028;-74
2021/09/25 01:54:56;;;;;;;9.18;4.75;;;;;;;15.67;84.64;101650.03;5095369;28;20395;-74
2021/09/25 01:57:21;;;;;;;15.25;4.78;;;;;;;15.66;84.56;101646.50;5096263;28;20036;-74
2021/09/25 01:59:47;;;;;;;19.52;5.72;;;;;;;15.64;85.01;101643.13;5095464;28;20055;-74
2021/09/25 02:02:13;;;;;;;14.93;5.88;;;;;;;15.61;85.29;101651.47;5096111;28;20028;-74
2021/09/25 02:04:45;;;;;;;17.95;5.40;;;;;;;15.61;85.72;101650.63;5095913;28;20032;-75
2021/09/25 02:07:11;;;;;;;15.77;5.45;;;;;;;15.58;85.75;101643.72;5096040;28;20068;-75
2021/09/25 02:09:36;;;;;;;14.13;5.38;;;;;;;15.59;85.42;101641.91;5095990;28;20036;-74
2021/09/25 02:12:01;;;;;;;15.25;5.55;;;;;;;15.59;85.50;101644.59;5094869;28;20059;-74
2021/09/25 02:14:27;;;;;;;12.73;5.07;;;;;;;15.59;85.65;101642.75;5095707;28;20036;-74
2021/09/25 02:16:52;;;;;;;11.30;5.30;;;;;;;15.56;85.46;101639.53;5095301;28;20036;-74
2021/09/25 02:19:17;;;;;;;12.80;5.80;;;;;;;15.54;85.70;101641.50;5095759;28;20032;-74
2021/09/25 02:21:43;;;;;;;15.40;5.43;;;;;;;15.50;86.12;101644.50;5095125;28;20028;-75
2021/09/25 02:24:08;;;;;;;19.08;5.70;;;;;;;15.49;86.50;101642.78;5095429;28;20075;-73
2021/09/25 02:26:34;;;;;;;12.80;5.88;;;;;;;15.47;86.13;101644.78;5095737;28;20032;-74
2021/09/25 02:28:59;;;;;;;19.17;6.50;;;;;;;15.47;86.27;101642.13;5094889;28;20476;-74
2021/09/25 02:31:25;;;;;;;22.08;6.13;;;;;;;15.48;86.25;101645.63;5095434;28;20036;-74
2021/09/25 02:33:50;;;;;;;19.95;6.40;;;;;;;15.47;86.11;101641.28;5095270;28;20111;-74
2021/09/25 02:36:16;;;;;;;17.52;6.35;;;;;;;15.45;86.19;101648.63;5095175;28;20460;-74
2021/09/25 02:38:41;;;;;;;14.65;6.65;;;;;;;15.44;86.12;101642.41;5094633;28;20471;-73
2021/09/25 02:41:06;;;;;;;20.60;6.60;;;;;;;15.44;86.19;101642.41;5094701;28;20137;-74
2021/09/25 02:43:32;;;;;;;13.77;6.28;;;;;;;15.43;86.43;101640.72;5095392;28;20119;-74
2021/09/25 02:45:57;;;;;;;19.05;6.35;;;;;;;15.41;86.14;101640.03;5094666;28;20495;-74
2021/09/25 02:48:22;;;;;;;18.52;6.40;;;;;;;15.40;86.32;101640.19;5095187;28;20043;-74
2021/09/25 02:50:48;;;;;;;19.42;7.13;;;;;;;15.38;86.95;101636.84;5094510;28;20089;-74
2021/09/25 02:53:14;;;;;;;13.27;6.28;;;;;;;15.39;86.55;101636.69;5094868;28;20123;-74
2021/09/25 02:55:39;;;;;;;18.00;6.72;;;;;;;15.39;86.92;101627.78;5095095;28;20039;-74
2021/09/25 02:58:04;;;;;;;14.88;6.18;;;;;;;15.36;86.72;101634.31;5094461;28;20308;-74
2021/09/25 03:00:30;;;;;;;25.65;7.25;;;;;;;15.36;86.88;101631.63;5095039;28;20529;-74
2021/09/25 03:02:56;;;;;;;10.27;5.72;;;;;;;15.36;86.99;101639.66;5094309;28;20062;-74
2021/09/25 03:05:21;;;;;;;22.45;7.13;;;;;;;15.36;86.98;101639.66;5094880;28;20460;-74
2021/09/25 03:07:47;;;;;;;25.05;6.40;;;;;;;15.37;87.40;101641.34;5094556;28;20371;-76
2021/09/25 03:10:12;;;;;;;14.35;6.60;;;;;;;15.34;87.58;101639.78;5094378;28;20403;-74
2021/09/25 03:12:38;;;;;;;24.85;7.15;;;;;;;15.33;87.73;101635.44;5076122;28;20058;-74
2021/09/25 03:15:05;;;;;;;17.80;6.78;;;;;;;15.32;87.40;101631.06;5094076;28;20055;-74
2021/09/25 03:17:30;;;;;;;13.15;6.18;;;;;;;15.33;87.73;101638.13;5094437;28;20369;-74
2021/09/25 03:19:56;;;;;;;16.23;6.18;;;;;;;15.32;87.86;101638.28;5093937;28;20024;-74
2021/09/25 03:22:21;;;;;;;17.17;6.45;;;;;;;15.33;87.67;101637.25;5094301;28;20036;-74
2021/09/25 03:24:47;;;;;;;20.08;7.05;;;;;;;15.35;87.71;101635.28;5094514;28;20452;-74
2021/09/25 03:27:12;;;;;;;20.27;7.22;;;;;;;15.34;88.16;101637.09;5093661;28;20040;-74
2021/09/25 03:29:38;;;;;;;17.92;6.40;;;;;;;15.35;88.14;101637.97;5094948;28;20043;-74
2021/09/25 03:32:04;;;;;;;19.75;7.05;;;;;;;15.34;88.27;101633.59;5094084;28;20387;-74
2021/09/25 03:34:29;;;;;;;20.77;6.93;;;;;;;15.34;88.33;101634.44;5094083;28;20039;-74
2021/09/25 03:36:55;;;;;;;15.88;6.10;;;;;;;15.34;88.42;101638.97;5093729;28;20036;-74
2021/09/25 03:39:20;;;;;;;22.00;7.47;;;;;;;15.35;88.56;101632.59;5094227;28;20039;-74
2021/09/25 03:41:46;;;;;;;18.15;7.10;;;;;;;15.34;88.52;101637.09;5094443;28;20514;-74
2021/09/25 03:44:11;;;;;;;25.92;7.55;;;;;;;15.34;88.65;101647.00;5093508;28;20086;-74
2021/09/25 03:46:37;;;;;;;18.40;7.05;;;;;;;15.33;88.63;101632.75;5076143;28;20068;-74
2021/09/25 03:49:03;;;;;;;14.52;6.80;;;;;;;15.32;88.62;101633.75;5093468;28;20044;-75
2021/09/25 03:51:28;;;;;;;24.45;7.28;;;;;;;15.34;89.32;101636.28;5092599;28;20452;-74
2021/09/25 03:53:53;;;;;;;21.20;7.22;;;;;;;15.35;89.06;101643.34;5093722;28;20028;-74
2021/09/25 03:56:19;;;;;;;23.77;7.75;;;;;;;15.37;89.00;101646.69;5093921;28;20448;-74
2021/09/25 03:58:45;;;;;;;20.90;8.00;;;;;;;15.37;88.81;101649.38;5093997;28;20036;-74
2021/09/25 04:01:12;;;;;;;27.90;7.47;;;;;;;15.40;88.68;101645.56;5093140;28;20060;-74
2021/09/25 04:03:38;;;;;;;18.25;6.90;;;;;;;15.40;89.06;101645.56;5093681;28;20477;-74
2021/09/25 04:06:03;;;;;;;18.13;7.15;;;;;;;15.39;89.35;101639.38;5093082;28;20038;-74
2021/09/25 04:08:29;;;;;;;24.75;7.85;;;;;;;15.39;89.48;101650.09;5093837;28;20093;-73
2021/09/25 04:10:55;;;;;;;18.38;6.90;;;;;;;15.39;89.15;101650.09;5058417;28;20521;-74
2021/09/25 04:13:21;;;;;;;22.67;8.20;;;;;;;15.39;89.87;101646.53;5093634;28;20077;-74
2021/09/25 04:15:46;;;;;;;25.00;8.23;;;;;;;15.40;89.85;101650.91;5093336;28;20028;-74
2021/09/25 04:18:11;;;;;;;25.10;8.52;;;;;;;15.39;89.73;101642.03;5092792;28;20055;-74
2021/09/25 04:20:38;;;;;;;22.90;8.48;;;;;;;15.40;89.93;101646.41;5093499;28;20106;-74
2021/09/25 04:23:04;;;;;;;18.00;7.70;;;;;;;15.40;89.76;101646.41;5092855;28;20036;-74
2021/09/25 04:25:32;;;;;;;22.75;8.75;;;;;;;15.41;89.84;101647.25;5093192;28;20525;-74
2021/09/25 04:28:04;;;;;;;26.27;9.50;;;;;;;15.42;89.99;101641.75;5092684;28;20036;-75
2021/09/25 04:30:37;;;;;;;22.33;8.93;;;;;;;15.42;90.04;101638.19;5093268;28;20064;-74
2021/09/25 04:33:03;;;;;;;25.25;8.73;;;;;;;15.39;89.96;101639.38;5092654;28;20027;-75
2021/09/25 04:35:28;;;;;;;25.85;9.98;;;;;;;15.40;90.22;101649.06;5092887;28;20032;-74
2021/09/25 04:37:56;;;;;;;20.00;8.63;;;;;;;15.38;90.11;101642.19;5093154;28;20028;-73
2021/09/25 04:40:22;;;;;;;33.08;9.65;;;;;;;15.42;89.57;101647.09;5092551;28;20040;-74
2021/09/25 04:42:47;;;;;;;22.67;9.00;;;;;;;15.40;89.55;101649.06;5093083;28;20028;-74
2021/09/25 04:45:13;;;;;;;22.13;9.45;;;;;;;15.37;90.20;101641.34;5092224;28;20028;-75
2021/09/25 04:47:39;;;;;;;25.02;8.77;;;;;;;15.36;89.97;101647.72;5092901;28;20036;-74
2021/09/25 04:50:05;;;;;;;26.73;9.32;;;;;;;15.35;90.21;101651.38;5092692;28;20110;-74
2021/09/25 04:52:31;;;;;;;29.45;9.82;;;;;;;15.34;89.81;101638.97;5092793;28;20028;-74
2021/09/25 04:54:56;;;;;;;27.55;9.70;;;;;;;15.33;90.29;101634.56;5093188;28;20036;-74
2021/09/25 04:57:21;;;;;;;24.08;9.50;;;;;;;15.31;90.59;101633.91;5091961;28;20172;-74
2021/09/25 04:59:47;;;;;;;23.90;10.10;;;;;;;15.30;90.19;101637.56;5092977;28;20105;-74
2021/09/25 05:02:12;;;;;;;27.05;9.63;;;;;;;15.30;90.27;101638.44;5091845;28;20115;-74
2021/09/25 05:04:37;;;;;;;25.15;10.40;;;;;;;15.31;90.19;101641.94;5092811;28;20044;-74
2021/09/25 05:07:03;;;;;;;21.80;9.65;;;;;;;15.30;90.26;101640.25;5092134;28;20383;-75
2021/09/25 05:09:28;;;;;;;27.48;10.43;;;;;;;15.29;90.75;101641.25;5092421;28;20028;-74
2021/09/25 05:11:54;;;;;;;36.03;11.73;;;;;;;15.26;90.65;101642.41;5092410;28;20485;-73
2021/09/25 05:14:20;;;;;;;26.27;11.82;;;;;;;15.24;90.61;101639.03;5074124;28;20456;-74
2021/09/25 05:16:45;;;;;;;27.38;11.68;;;;;;;15.25;90.84;101642.53;5092360;28;20135;-74
2021/09/25 05:19:11;;;;;;;28.38;11.93;;;;;;;15.24;91.23;101641.72;5091993;28;20028;-74
2021/09/25 05:21:36;;;;;;;29.88;11.80;;;;;;;15.24;91.11;101641.72;5092807;28;20112;-75
2021/09/25 05:24:02;;;;;;;29.90;11.50;;;;;;;15.24;91.28;101638.16;5092415;28;20411;-74
2021/09/25 05:26:28;;;;;;;33.63;12.35;;;;;;;15.27;91.20;101644.09;5091832;28;20039;-75
2021/09/25 05:28:53;;;;;;;37.78;12.25;;;;;;;15.27;91.13;101637.88;5092566;28;20032;-74
2021/09/25 05:31:19;;;;;;;33.05;11.82;;;;;;;15.27;90.94;101643.22;5092032;28;20028;-75
2021/09/25 05:33:44;;;;;;;32.38;12.82;;;;;;;15.25;91.29;101647.91;5092302;28;20081;-74
2021/09/25 05:36:09;;;;;;;29.52;12.70;;;;;;;15.22;91.23;101646.38;5091647;28;20035;-75
2021/09/25 05:38:35;;;;;;;34.55;12.90;;;;;;;15.21;91.82;101655.41;5092216;28;20460;-73
2021/09/25 05:41:00;;;;;;;30.50;13.05;;;;;;;15.21;91.98;101649.19;5092674;28;20032;-76
2021/09/25 05:43:26;;;;;;;34.75;13.35;;;;;;;15.21;91.93;101643.84;5091435;28;20368;-74
2021/09/25 05:45:51;;;;;;;40.00;13.48;;;;;;;15.19;91.86;101641.31;5074153;28;20078;-74
2021/09/25 05:48:16;;;;;;;31.15;12.75;;;;;;;15.21;92.05;101643.84;5091638;28;20028;-74
2021/09/25 05:50:42;;;;;;;26.33;12.55;;;;;;;15.20;92.27;101647.50;5092496;28;20032;-74
2021/09/25 05:53:07;;;;;;;30.05;12.60;;;;;;;15.18;92.36;101650.31;5092151;28;20048;-76
2021/09/25 05:55:33;;;;;;;37.75;13.10;;;;;;;15.19;92.53;101652.03;5091703;28;20054;-74
2021/09/25 05:58:01;;;;;;;35.65;13.35;;;;;;;15.20;92.36;101650.19;5092181;28;20028;-74
2021/09/25 06:00:27;;;;;;;42.22;14.32;;;;;;;15.20;92.46;101652.84;5091620;28;20074;-75
2021/09/25 06:02:53;;;;;;;41.33;14.00;;;;;;;15.22;92.31;101658.94;5092142;28;20035;-73
2021/09/25 06:05:18;;;;;;;37.25;14.70;;;;;;;15.23;92.42;101652.59;5091517;28;20025;-77
2021/09/25 06:07:43;;;;;;;41.42;14.63;;;;;;;15.27;92.24;101648.59;5092121;28;20411;-74
2021/09/25 06:10:09;;;;;;;40.97;14.65;;;;;;;15.29;92.05;101651.97;5091830;28;20036;-76
2021/09/25 06:12:34;;;;;;;46.08;15.70;;;;;;;15.31;92.23;101653.50;5091308;28;20056;-75
2021/09/25 06:15:00;;;;;;;40.80;14.75;;;;;;;15.32;92.28;101659.72;5094098;28;20067;-75
2021/09/25 06:17:25;;;;;;;32.47;13.75;;;;;;;15.32;92.27;101655.19;5095212;28;20464;-74
2021/09/25 06:19:50;;;;;;;45.80;14.52;;;;;;;15.31;91.86;101658.84;5095724;28;20074;-74
2021/09/25 06:22:16;;;;;;;42.67;14.48;;;;;;;15.32;91.82;101654.38;5095139;28;20066;-74
2021/09/25 06:24:42;;;;;;;47.63;14.52;;;;;;;15.33;92.17;101656.03;5095955;28;20064;-71
2021/09/25 06:27:07;;;;;;;44.08;16.52;;;;;;;15.35;91.88;101654.06;5095336;28;20032;-72
2021/09/25 06:29:34;;;;;;;53.70;16.02;;;;;;;15.34;92.04;101655.03;5094666;28;20273;-73
2021/09/25 06:31:59;;;;;;;51.47;15.32;;;;;;;15.34;92.25;101652.38;5095506;28;20040;-72
2021/09/25 06:34:24;;;;;;;43.80;15.45;;;;;;;15.36;92.20;101658.44;5076560;28;20526;-71
2021/09/25 06:36:50;;;;;;;47.90;15.88;;;;;;;15.38;92.13;101661.81;5077215;28;20032;-71
2021/09/25 06:39:15;;;;;;;43.15;14.80;;;;;;;15.45;92.53;101653.97;5094877;28;20468;-72
2021/09/25 06:41:41;;;;;;;45.55;14.82;;;;;;;15.57;92.28;101660.84;5095563;28;20031;-69
2021/09/25 06:44:06;;;;;;;44.67;15.52;;;;;;;15.73;91.60;101662.81;5091167;28;20036;-72
2021/09/25 06:46:32;;;;;;;48.47;15.73;;;;;;;15.85;90.66;101667.00;5092013;28;20453;-73
2021/09/25 06:48:58;;;;;;;38.63;14.43;;;;;;;15.94;90.17;101669.75;5092400;28;20035;-73
2021/09/25 06:51:23;;;;;;;44.20;15.95;;;;;;;16.04;89.89;101678.56;5091867;28;20032;-71
2021/09/25 06:53:48;;;;;;;43.58;15.55;;;;;;;16.10;89.27;101671.75;5092405;28;20024;-71
2021/09/25 06:56:14;;;;;;;57.33;16.95;;;;;;;16.13;88.93;101677.63;5092116;28;20043;-71
2021/09/25 06:58:39;;;;;;;55.58;17.33;;;;;;;16.21;88.58;101680.41;5091481;28;20036;-71
2021/09/25 07:01:05;;;;;;;60.28;18.13;;;;;;;16.26;87.93;101671.88;5073970;28;20036;-71
2021/09/25 07:03:30;;;;;;;55.45;17.10;;;;;;;16.30;88.39;101675.06;5091581;28;20028;-71
2021/09/25 07:05:55;;;;;;;52.97;17.35;;;;;;;16.35;88.36;101680.84;5092316;28;20059;-71
2021/09/25 07:08:21;;;;;;;51.25;17.75;;;;;;;16.44;87.69;101671.00;5091331;28;20039;-71
2021/09/25 07:10:47;;;;;;;56.85;18.58;;;;;;;16.52;87.30;101679.94;5091577;28;20032;-71
2021/09/25 07:13:13;;;;;;;61.53;19.27;;;;;;;16.57;86.49;101672.25;5091851;28;20115;-72
2021/09/25 07:15:40;;;;;;;57.63;19.45;;;;;;;16.65;86.56;101658.03;5091221;28;20515;-71
2021/09/25 07:18:05;;;;;;;58.40;19.17;;;;;;;16.69;86.55;101675.53;5073917;28;20036;-71
2021/09/25 07:20:31;;;;;;;61.90;18.45;;;;;;;16.75;86.24;101674.03;5083050;28;20036;-72
2021/09/25 07:22:56;;;;;;;57.45;18.92;;;;;;;16.87;86.12;101680.84;5086158;28;20075;-72
2021/09/25 07:25:23;;;;;;;63.17;19.05;;;;;;;16.98;85.96;101676.19;5092636;28;20056;-71
2021/09/25 07:27:50;;;;;;;56.67;18.88;;;;;;;17.06;85.33;101690.53;5075664;28;20028;-71
2021/09/25 07:30:15;;;;;;;57.58;17.83;;;;;;;17.21;84.73;101693.44;5093174;28;20032;-72
2021/09/25 07:32:41;;;;;;;65.32;19.70;;;;;;;17.31;83.95;101692.47;5092743;28;20036;-72
2021/09/25 07:35:08;;;;;;;54.75;18.75;;;;;;;17.32;83.68;101699.53;5093142;28;20032;-72
2021/09/25 07:37:34;;;;;;;65.43;21.15;;;;;;;17.34;83.37;101705.59;5092743;28;20492;-75
2021/09/25 07:40:01;;;;;;;55.65;19.60;;;;;;;17.35;83.71;101707.28;5092990;28;20032;-72
2021/09/25 07:42:26;;;;;;;49.50;19.52;;;;;;;17.36;84.01;101712.50;5092756;28;20575;-74
2021/09/25 07:44:52;;;;;;;52.88;19.15;;;;;;;17.42;83.70;101716.34;5093287;28;20115;-71
2021/09/25 07:47:17;;;;;;;52.25;20.55;;;;;;;17.40;83.12;101713.00;5093129;28;20040;-74
2021/09/25 07:49:43;;;;;;;50.17;18.52;;;;;;;17.43;82.69;101709.97;5092167;28;20637;-75
2021/09/25 07:52:08;;;;;;;58.97;20.50;;;;;;;17.31;83.32;101711.28;5092894;28;20353;-72
2021/09/25 07:54:33;;;;;;;59.33;21.02;;;;;;;17.25;84.17;101713.59;5092431;28;20032;-72
2021/09/25 07:56:59;;;;;;;50.95;20.05;;;;;;;17.22;84.39;101730.06;5093013;28;20079;-73
2021/09/25 07:59:24;;;;;;;59.70;20.55;;;;;;;17.20;84.42;101729.41;5092757;28;20024;-74
2021/09/25 08:01:50;;;;;;;53.65;18.58;;;;;;;17.20;84.71;101728.56;5074827;28;20032;-73
2021/09/25 08:04:16;;;;;;;49.75;21.25;;;;;;;17.17;84.65;101729.72;5092852;28;20521;-72
2021/09/25 08:06:42;;;;;;;63.80;22.92;;;;;;;17.23;84.81;101730.94;5092209;28;20080;-72
2021/09/25 08:09:07;;;;;;;60.03;21.35;;;;;;;17.27;85.09;101741.19;5092597;28;20050;-71
2021/09/25 08:11:33;;;;;;;49.95;19.58;;;;;;;17.37;85.00;101740.22;5091508;28;20055;-73
2021/09/25 08:13:58;;;;;;;60.35;22.35;;;;;;;17.47;84.34;101743.63;5092498;28;20039;-72
2021/09/25 08:16:23;;;;;;;49.28;20.85;;;;;;;17.59;84.08;101741.50;5092683;28;20476;-72
2021/09/25 08:18:49;;;;;;;55.67;22.85;;;;;;;17.61;83.93;101747.53;5073822;28;20028;-72
2021/09/25 08:21:15;;;;;;;54.53;20.88;;;;;;;17.66;83.46;101753.28;5092535;28;20062;-73
2021/09/25 08:23:40;;;;;;;57.28;22.30;;;;;;;17.75;83.15;101743.34;5091657;28;20051;-72
2021/09/25 08:26:06;;;;;;;50.33;19.10;;;;;;;17.88;83.09;101754.50;5073828;28;20389;-73
2021/09/25 08:28:31;;;;;;;53.67;21.70;;;;;;;17.97;82.24;101747.31;5091536;28;20028;-73
2021/09/25 08:30:56;;;;;;;53.45;19.98;;;;;;;18.10;81.99;101757.59;5092363;28;20131;-73
2021/09/25 08:33:22;;;;;;;50.10;20.42;;;;;;;18.12;82.35;101755.56;5092336;28;20039;-72
2021/09/25 08:35:47;;;;;;;54.40;20.50;;;;;;;18.19;81.69;101758.47;5091724;28;20034;-73
2021/09/25 08:38:12;;;;;;;55.47;20.40;;;;;;;18.37;80.71;101758.31;5091774;28;20107;-72
2021/09/25 08:40:38;;;;;;;44.50;18.15;;;;;;;18.51;80.86;101760.31;5091320;28;20071;-73
2021/09/25 08:43:03;;;;;;;51.25;18.27;;;;;;;18.66;79.88;101764.00;5091921;28;20032;-74
2021/09/25 08:45:29;;;;;;;42.53;17.65;;;;;;;18.68;79.15;101770.06;5091613;28;20089;-74
2021/09/25 08:47:56;;;;;;;45.83;18.55;;;;;;;18.64;79.97;101771.41;5092449;28;20078;-73
2021/09/25 08:50:22;;;;;;;91.88;26.73;;;;;;;18.60;80.41;101772.78;5092108;28;20032;-73
2021/09/25 08:52:47;;;;;;;44.58;19.33;;;;;;;18.64;80.07;101766.03;5091207;28;20039;-73
2021/09/25 08:55:13;;;;;;;41.30;17.30;;;;;;;18.82;79.65;101773.09;5092222;28;20111;-73
2021/09/25 08:57:39;;;;;;;39.53;17.95;;;;;;;18.90;78.79;101775.81;5091580;28;20028;-73
2021/09/25 09:00:31;;;;;;;43.83;18.70;;;;;;;19.18;78.37;101770.84;5091796;28;20036;-73
2021/09/25 09:03:16;;;;;;;46.05;18.77;;;;;;;19.37;76.36;101771.44;5092184;28;20027;-73
2021/09/25 09:05:41;;;;;;;53.80;19.70;;;;;;;19.42;76.46;101771.75;5091070;28;20020;-72
2021/09/25 09:08:07;;;;;;;44.08;17.70;;;;;;;19.58;75.23;101773.56;5091797;28;20032;-73
2021/09/25 09:10:33;;;;;;;45.33;17.98;;;;;;;19.79;74.57;101770.25;5091085;28;20036;-73
2021/09/25 09:13:00;;;;;;;43.60;17.15;;;;;;;19.99;75.07;101777.91;5091833;28;20482;-72
2021/09/25 09:15:38;;;;;;;40.42;18.13;;;;;;;19.99;73.85;101781.47;5091796;28;20038;-73
2021/09/25 09:18:11;;;;;;;41.95;18.50;;;;;;;19.79;74.56;101786.47;5091601;28;20541;-73
2021/09/25 09:20:38;;;;;;;37.95;16.80;;;;;;;19.64;75.73;101788.22;5090866;28;20081;-73
2021/09/25 09:23:18;;;;;;;45.17;17.83;;;;;;;19.48;75.66;101789.97;5091650;28;20028;-73
2021/09/25 09:25:44;;;;;;;42.65;18.15;;;;;;;19.45;75.17;101793.03;5090946;28;20039;-73
2021/09/25 09:28:24;;;;;;;44.00;18.60;;;;;;;19.27;76.33;101787.00;5091594;28;20035;-73
2021/09/25 09:30:52;;;;;;;43.70;17.63;;;;;;;19.22;76.27;101792.09;5090581;28;20107;-73
2021/09/25 09:33:54;;;;;;;45.20;17.55;;;;;;;19.32;76.32;101806.22;5091788;28;20040;-73
2021/09/25 09:36:21;;;;;;;49.83;18.20;;;;;;;19.41;76.21;101790.81;5074484;28;20079;-73
2021/09/25 09:38:51;;;;;;;45.63;17.85;;;;;;;19.50;75.77;101784.41;5072878;28;20071;-73
2021/09/25 09:41:25;;;;;;;39.25;17.08;;;;;;;19.65;75.59;101788.03;5091663;28;20047;-73
2021/09/25 09:43:52;;;;;;;37.05;16.73;;;;;;;19.72;75.16;101791.72;5091004;28;20032;-76
2021/09/25 09:46:18;;;;;;;33.65;15.40;;;;;;;19.81;73.15;101781.75;5091575;28;20059;-73
2021/09/25 09:48:45;;;;;;;37.85;17.73;;;;;;;19.65;74.23;101784.50;5092451;28;20036;-73
2021/09/25 09:51:11;;;;;;;44.42;17.58;;;;;;;19.56;74.73;101786.38;5095415;28;20032;-73
2021/09/25 09:53:46;;;;;;;37.65;17.10;;;;;;;19.38;74.45;101789.34;5094836;28;20032;-73
2021/09/25 09:56:22;;;;;;;48.80;18.25;;;;;;;19.14;75.92;101784.88;5095426;28;20080;-73
2021/09/25 09:59:04;;;;;;;47.13;19.85;;;;;;;18.89;77.47;101787.59;5094824;28;20032;-73
2021/09/25 10:01:30;;;;;;;50.10;19.45;;;;;;;18.80;78.08;101792.13;5095281;28;20487;-72
2021/09/25 10:03:58;;;;;;;51.83;20.08;;;;;;;18.78;77.60;101787.91;5094640;28;20257;-74
2021/09/25 10:06:24;;;;;;;45.30;20.10;;;;;;;18.73;78.32;101793.81;5095169;28;20054;-73
2021/09/25 10:08:49;;;;;;;44.80;20.42;;;;;;;18.73;78.46;101801.06;5094285;28;20512;-73
2021/09/25 10:11:16;;;;;;;42.90;21.23;;;;;;;18.79;77.75;101795.00;5095007;28;20100;-73
2021/09/25 10:13:41;;;;;;;45.40;21.48;;;;;;;18.80;77.71;101788.59;5094584;28;20024;-73
2021/09/25 10:16:08;;;;;;;50.90;21.05;;;;;;;18.81;77.74;101798.34;5095231;28;20464;-74
2021/09/25 10:18:35;;;;;;;52.25;20.23;;;;;;;18.81;78.20;101799.22;5094609;28;20445;-73
2021/09/25 10:21:02;;;;;;;45.53;20.30;;;;;;;18.80;78.52;101797.53;5094337;28;20107;-72
2021/09/25 10:23:28;;;;;;;44.10;21.13;;;;;;;18.85;78.40;101802.41;5094744;28;20058;-73
2021/09/25 10:25:54;;;;;;;38.40;19.05;;;;;;;18.87;77.66;101791.47;5094100;28;20024;-75
2021/09/25 10:28:28;;;;;;;44.33;19.92;;;;;;;18.86;76.96;101782.56;5094871;28;20377;-76
2021/09/25 10:30:54;;;;;;;48.42;21.15;;;;;;;18.87;78.02;101780.69;5094182;28;20039;-75
2021/09/25 10:33:22;;;;;;;42.85;19.80;;;;;;;18.91;77.73;101782.88;5076689;28;20028;-77
2021/09/25 10:35:48;;;;;;;42.92;19.50;;;;;;;19.02;78.30;101785.22;5094380;28;20122;-74
2021/09/25 10:38:13;;;;;;;39.67;20.00;;;;;;;19.10;76.85;101787.03;5094355;28;20165;-73
2021/09/25 10:40:42;;;;;;;50.00;22.17;;;;;;;19.20;77.47;101786.88;5094847;28;20032;-74
2021/09/25 10:43:19;;;;;;;44.15;21.23;;;;;;;19.31;75.90;101783.78;5094897;28;20067;-74
2021/09/25 10:45:48;;;;;;;48.72;22.75;;;;;;;19.40;76.12;101784.59;5093926;28;20165;-75
2021/09/25 10:48:24;;;;;;;50.17;23.15;;;;;;;19.45;76.59;101782.22;5094291;28;20051;-75
2021/09/25 10:51:11;;;;;;;51.85;23.42;;;;;;;19.56;75.08;101778.28;5093967;28;20102;-75
2021/09/25 10:53:42;;;;;;;50.10;22.38;;;;;;;19.76;75.06;101772.47;5094719;28;20020;-75
2021/09/25 10:56:21;;;;;;;45.33;22.80;;;;;;;19.90;74.14;101775.28;5094714;28;20103;-74
2021/09/25 10:58:57;;;;;;;49.78;23.60;;;;;;;19.98;73.95;101774.38;5093458;28;20032;-73
2021/09/25 11:01:37;;;;;;;41.63;23.98;;;;;;;20.04;73.50;101779.06;5093346;28;20129;-74
2021/09/25 11:04:21;;;;;;;45.58;23.17;;;;;;;20.05;74.08;101779.91;5093679;28;20100;-73
2021/09/25 11:06:53;;;;;;;50.42;23.55;;;;;;;19.99;73.19;101778.78;5093576;28;20035;-73
2021/09/25 11:09:29;;;;;;;49.42;23.75;;;;;;;20.04;73.46;101773.66;5094232;28;20124;-74